Time;durP1;ratioP1;P1;durP2;ratioP2;P2;SDS_P1;SDS_P2;PMS_P1;PMS_P2;Temp;Humidity;BMP_temperature;BMP_pressure;BME280_temperature;BME280_humidity;BME280_pressure;Samples;Min_cycle;Max_cycle;Signal;HPM_P1;HPM_P2
2022/06/15 00:01:18;;;;;;;2.15;1.52;;;;;;;27.68;38.74;97042.28;5133917;27;20027;-28
2022/06/15 00:03:46;;;;;;;2.03;1.40;;;;;;;27.79;38.40;97040.09;5133911;27;20031;-27
2022/06/15 00:06:16;;;;;;;2.47;1.30;;;;;;;27.73;39.14;97042.19;5115432;28;20387;-28
2022/06/15 00:08:45;;;;;;;1.77;1.33;;;;;;;27.76;39.11;97040.38;5133573;27;20490;-27
2022/06/15 00:11:17;;;;;;;2.65;1.42;;;;;;;27.71;39.09;97047.53;5134134;27;20027;-27
2022/06/15 00:13:43;;;;;;;3.83;1.70;;;;;;;27.69;39.17;97036.16;5133782;27;20045;-27
2022/06/15 00:16:09;;;;;;;1.95;1.50;;;;;;;27.72;39.40;97042.69;5133830;27;20031;-28
2022/06/15 00:18:35;;;;;;;3.35;1.70;;;;;;;27.78;39.77;97046.19;5137240;27;20034;-28
2022/06/15 00:21:01;;;;;;;3.42;1.63;;;;;;;27.73;39.71;97053.31;5137641;27;20102;-27
2022/06/15 00:23:29;;;;;;;3.10;1.70;;;;;;;27.71;40.16;97052.34;5137616;27;20094;-27
2022/06/15 00:25:57;;;;;;;4.57;1.63;;;;;;;27.77;39.65;97047.47;5137561;27;20019;-27
2022/06/15 00:28:23;;;;;;;2.30;1.60;;;;;;;27.71;39.45;97046.78;5137460;27;20050;-28
2022/06/15 00:30:50;;;;;;;3.03;1.77;;;;;;;27.78;39.43;97046.19;5137328;27;20376;-27
2022/06/15 00:33:19;;;;;;;2.95;1.98;;;;;;;27.79;39.98;97047.69;5137487;27;20019;-27
2022/06/15 00:35:51;;;;;;;2.85;1.40;;;;;;;27.82;40.06;97049.41;5137558;27;20076;-27
2022/06/15 00:38:16;;;;;;;2.33;1.57;;;;;;;27.79;39.98;97050.47;5137327;27;20019;-27
2022/06/15 00:40:42;;;;;;;2.50;1.50;;;;;;;27.71;40.21;97053.09;5137153;27;20506;-27
2022/06/15 00:43:08;;;;;;;2.13;1.65;;;;;;;27.76;40.17;97057.09;5137216;27;20449;-27
2022/06/15 00:45:34;;;;;;;3.90;1.80;;;;;;;27.68;40.14;97050.63;5137276;27;20050;-28
2022/06/15 00:47:59;;;;;;;3.53;1.65;;;;;;;27.74;40.66;97042.94;5136945;27;20476;-28
2022/06/15 00:50:25;;;;;;;3.25;1.77;;;;;;;27.75;40.36;97050.00;5137121;27;20482;-28
2022/06/15 00:52:57;;;;;;;3.38;1.90;;;;;;;27.69;40.36;97047.31;5136935;27;20025;-28
2022/06/15 00:55:26;;;;;;;2.72;1.60;;;;;;;27.74;41.08;97042.94;5136985;27;20087;-27
2022/06/15 00:57:52;;;;;;;2.30;1.77;;;;;;;27.71;40.98;97055.88;5136807;27;20047;-27
2022/06/15 01:00:19;;;;;;;2.05;1.60;;;;;;;27.74;40.78;97040.16;5137087;27;20020;-28
2022/06/15 01:02:45;;;;;;;3.72;2.00;;;;;;;27.74;40.33;97042.94;5137048;27;20033;-28
2022/06/15 01:05:18;;;;;;;2.78;1.70;;;;;;;27.74;41.27;97051.28;5136808;27;20110;-27
2022/06/15 01:08:01;;;;;;;2.35;1.70;;;;;;;27.76;40.72;97046.72;5136895;27;20027;-27
2022/06/15 01:10:45;;;;;;;3.05;1.95;;;;;;;27.76;40.77;97040.38;5136921;27;20019;-28
2022/06/15 01:13:21;;;;;;;2.35;1.50;;;;;;;27.73;40.89;97047.00;5136508;27;20499;-28
2022/06/15 01:16:25;;;;;;;1.75;1.42;;;;;;;27.72;40.89;97034.34;5136582;27;20027;-27
2022/06/15 01:18:55;;;;;;;2.83;1.98;;;;;;;27.70;40.98;97039.69;5136473;27;20019;-27
2022/06/15 01:21:31;;;;;;;5.28;1.90;;;;;;;27.71;41.42;97041.94;5136509;27;20046;-27
2022/06/15 01:24:06;;;;;;;1.90;1.40;;;;;;;27.71;40.92;97041.19;5136543;27;20031;-27
2022/06/15 01:26:43;;;;;;;4.88;2.20;;;;;;;27.69;41.05;97041.75;5136245;27;20031;-27
2022/06/15 01:29:24;;;;;;;3.03;1.80;;;;;;;27.74;41.58;97048.50;5135760;27;20026;-27
2022/06/15 01:32:04;;;;;;;3.63;1.73;;;;;;;27.65;41.69;97051.69;5136427;27;20415;-27
2022/06/15 01:34:29;;;;;;;2.30;1.90;;;;;;;27.69;41.03;97044.53;5136188;27;20027;-27
2022/06/15 01:37:15;;;;;;;4.65;2.00;;;;;;;27.67;41.77;97046.34;5136126;27;20027;-28
2022/06/15 01:39:47;;;;;;;3.00;1.60;;;;;;;27.73;40.91;97047.00;5135964;27;20038;-29
2022/06/15 01:42:20;;;;;;;;;;;;;;;27.70;41.41;97048.81;5134764;27;20107;-27
2022/06/15 01:44:55;;;;;;;3.78;1.90;;;;;;;27.66;41.90;97047.59;5113331;28;20321;-27
2022/06/15 01:47:23;;;;;;;2.90;1.77;;;;;;;27.66;41.50;97051.16;5114247;28;20035;-28
2022/06/15 01:50:05;;;;;;;2.78;1.80;;;;;;;27.65;41.22;97049.63;5115253;28;20495;-27
2022/06/15 01:52:36;;;;;;;2.58;2.00;;;;;;;27.65;42.03;97051.69;5115540;28;20023;-26
2022/06/15 01:55:10;;;;;;;3.90;2.13;;;;;;;27.63;41.38;97041.06;5115595;28;20027;-29
2022/06/15 01:57:38;;;;;;;3.72;2.05;;;;;;;27.63;41.67;97048.66;5115194;28;20023;-27
2022/06/15 02:00:10;;;;;;;3.00;2.00;;;;;;;27.63;41.69;97043.84;5114630;28;20027;-27
2022/06/15 02:02:48;;;;;;;2.38;1.60;;;;;;;27.65;41.66;97046.09;5115017;28;20023;-28
2022/06/15 02:05:39;;;;;;;2.53;1.95;;;;;;;27.58;41.73;97043.91;5115107;28;20116;-28
2022/06/15 02:08:17;;;;;;;2.17;1.60;;;;;;;27.63;41.57;97043.84;5103433;28;20480;-27
2022/06/15 02:10:54;;;;;;;2.72;2.00;;;;;;;27.64;41.62;97045.34;5114884;28;20030;-27
2022/06/15 02:13:29;;;;;;;3.00;1.70;;;;;;;27.60;41.95;97041.34;5114763;28;20097;-27
2022/06/15 02:16:02;;;;;;;3.90;1.90;;;;;;;27.59;41.49;97039.84;5115196;28;20030;-28
2022/06/15 02:18:28;;;;;;;;;;;;;;;27.57;41.15;97037.56;5115219;28;20061;-27
2022/06/15 02:21:00;;;;;;;3.47;1.83;;;;;;;27.57;41.71;97039.63;5114626;28;19947;-28
2022/06/15 02:23:28;;;;;;;3.33;2.17;;;;;;;27.57;41.69;97034.06;5114758;28;20055;-27
2022/06/15 02:25:54;;;;;;;2.47;1.80;;;;;;;27.58;41.53;97036.28;5114763;28;20030;-27
2022/06/15 02:28:28;;;;;;;3.63;1.80;;;;;;;27.54;41.54;97041.41;5114850;28;20115;-27
2022/06/15 02:30:53;;;;;;;1.95;1.70;;;;;;;27.52;41.75;97035.59;5114737;28;20388;-27
2022/06/15 02:33:26;;;;;;;2.20;2.00;;;;;;;27.61;41.44;97035.25;5114538;28;20019;-27
2022/06/15 02:35:53;;;;;;;2.47;1.75;;;;;;;27.50;41.83;97035.38;5114311;28;20474;-28
2022/06/15 02:38:18;;;;;;;2.10;1.80;;;;;;;27.45;41.46;97034.13;5114428;28;20036;-27
2022/06/15 02:40:44;;;;;;;4.32;2.08;;;;;;;27.51;41.72;97048.75;5113625;28;20031;-27
2022/06/15 02:43:11;;;;;;;2.92;2.03;;;;;;;27.53;41.47;97046.22;5114679;28;20406;-27
2022/06/15 02:45:39;;;;;;;2.53;2.00;;;;;;;27.49;41.71;97037.38;5114367;28;20055;-27
2022/06/15 02:48:07;;;;;;;6.00;2.20;;;;;;;27.52;41.19;97039.13;5114398;28;20065;-27
2022/06/15 02:50:40;;;;;;;4.10;2.10;;;;;;;27.52;41.63;97039.13;5114336;28;20023;-28
2022/06/15 02:53:11;;;;;;;2.15;1.83;;;;;;;27.48;41.72;97037.91;5114386;28;20035;-27
2022/06/15 02:55:37;;;;;;;4.55;1.80;;;;;;;27.51;41.65;97045.97;5114231;28;20496;-29
2022/06/15 02:58:11;;;;;;;3.42;1.80;;;;;;;27.52;41.56;97050.28;5114117;28;20023;-27
2022/06/15 03:00:38;;;;;;;3.33;1.70;;;;;;;27.51;40.96;97048.00;5114075;28;20495;-27
2022/06/15 03:03:04;;;;;;;3.55;1.50;;;;;;;27.43;41.36;97047.09;5113865;28;20491;-27
2022/06/15 03:05:30;;;;;;;3.03;1.90;;;;;;;27.47;41.10;97048.31;5114089;28;20116;-27
2022/06/15 03:07:55;;;;;;;3.55;1.85;;;;;;;27.44;41.42;97054.94;5114142;28;20051;-27
2022/06/15 03:10:21;;;;;;;2.40;1.70;;;;;;;27.46;41.51;97054.41;5095910;28;20491;-30
2022/06/15 03:12:46;;;;;;;2.78;1.67;;;;;;;27.49;41.40;97054.09;5113554;28;20055;-28
2022/06/15 03:15:12;;;;;;;2.75;1.77;;;;;;;27.46;41.20;97060.72;5113886;28;20065;-28
2022/06/15 03:17:37;;;;;;;3.63;1.90;;;;;;;27.48;41.30;97049.06;5113782;28;20031;-28
2022/06/15 03:20:04;;;;;;;2.95;1.90;;;;;;;27.44;41.32;97046.59;5113923;28;20031;-27
2022/06/15 03:22:32;;;;;;;4.65;1.95;;;;;;;27.46;41.45;97063.50;5113791;28;20024;-27
2022/06/15 03:24:57;;;;;;;5.30;1.77;;;;;;;27.44;41.52;97063.31;5113807;28;20033;-27
2022/06/15 03:27:23;;;;;;;2.63;1.77;;;;;;;27.41;41.13;97053.19;5113734;28;20379;-27
2022/06/15 03:29:50;;;;;;;2.17;1.83;;;;;;;27.41;41.26;97064.34;5113834;28;20429;-27
2022/06/15 03:32:16;;;;;;;3.45;2.00;;;;;;;27.40;41.45;97064.88;5113813;28;20047;-27
2022/06/15 03:34:41;;;;;;;3.40;1.80;;;;;;;27.36;41.66;97067.94;5113960;28;20023;-28
2022/06/15 03:37:08;;;;;;;4.72;2.00;;;;;;;27.42;41.33;97067.88;5113860;28;20023;-27
2022/06/15 03:39:33;;;;;;;3.03;1.83;;;;;;;27.40;41.30;97081.56;5113229;28;20490;-28
2022/06/15 03:42:18;;;;;;;6.55;2.40;;;;;;;27.39;41.54;97075.25;5113836;28;20110;-27
2022/06/15 03:44:45;;;;;;;2.55;1.73;;;;;;;27.44;41.16;97073.69;5113825;28;20062;-27
2022/06/15 03:47:16;;;;;;;3.17;1.80;;;;;;;27.41;41.26;97081.06;5095428;28;20383;-27
2022/06/15 03:49:48;;;;;;;4.53;2.28;;;;;;;27.36;41.86;97076.28;5113484;28;20472;-27
2022/06/15 03:52:14;;;;;;;2.40;1.70;;;;;;;27.34;41.87;97078.84;5114915;28;20509;-28
2022/06/15 03:54:39;;;;;;;3.25;2.10;;;;;;;27.42;41.33;97081.81;5117609;28;20028;-28
2022/06/15 03:57:05;;;;;;;3.17;1.88;;;;;;;27.33;41.72;97080.13;5117649;28;20031;-27
2022/06/15 03:59:31;;;;;;;3.13;1.80;;;;;;;27.32;41.73;97081.41;5117311;28;20491;-28
2022/06/15 04:01:57;;;;;;;2.63;1.73;;;;;;;27.36;41.87;97081.09;5117333;28;20042;-27
2022/06/15 04:04:22;;;;;;;4.95;2.08;;;;;;;27.38;41.55;97082.09;5117582;28;20376;-28
2022/06/15 04:06:49;;;;;;;2.88;1.80;;;;;;;27.35;41.42;97080.34;5117598;28;20047;-27
2022/06/15 04:09:20;;;;;;;3.92;2.15;;;;;;;27.32;41.93;97080.66;5117411;28;20027;-27
2022/06/15 04:11:58;;;;;;;4.05;1.55;;;;;;;27.36;41.48;97081.09;5117323;28;20476;-28
2022/06/15 04:14:25;;;;;;;3.13;1.55;;;;;;;27.31;41.53;97088.25;5117206;28;20530;-27
2022/06/15 04:16:53;;;;;;;2.58;1.58;;;;;;;27.33;41.70;97088.47;5117315;28;20427;-27
2022/06/15 04:19:24;;;;;;;3.25;1.95;;;;;;;27.34;41.90;97078.09;5116985;28;20527;-28
2022/06/15 04:21:49;;;;;;;3.40;1.90;;;;;;;27.36;41.66;97076.28;5116979;28;20111;-27
2022/06/15 04:24:16;;;;;;;3.22;1.55;;;;;;;27.32;41.63;97087.00;5116943;28;20024;-27
2022/06/15 04:26:44;;;;;;;3.20;1.73;;;;;;;27.33;42.01;97082.16;5117231;28;20111;-27
2022/06/15 04:29:09;;;;;;;4.18;1.92;;;;;;;27.30;42.09;97078.41;5117020;28;20023;-27
2022/06/15 04:31:35;;;;;;;3.75;2.20;;;;;;;27.31;42.26;97079.16;5116877;28;20019;-27
2022/06/15 04:34:01;;;;;;;2.13;1.73;;;;;;;27.28;42.08;97080.19;5117305;28;20020;-27
2022/06/15 04:36:28;;;;;;;3.55;2.17;;;;;;;27.25;42.14;97076.41;5116781;28;20055;-27
2022/06/15 04:38:54;;;;;;;2.92;1.98;;;;;;;27.28;42.40;97080.94;5116719;28;20468;-28
2022/06/15 04:41:19;;;;;;;2.08;1.65;;;;;;;27.31;42.35;97079.16;5116660;28;20028;-27
2022/06/15 04:43:45;;;;;;;3.88;2.13;;;;;;;27.28;42.30;97075.38;5116803;28;20027;-27
2022/06/15 04:46:11;;;;;;;3.15;1.95;;;;;;;27.27;42.15;97085.00;5116640;28;20562;-27
2022/06/15 04:48:36;;;;;;;3.58;1.80;;;;;;;27.28;42.15;97086.50;5116717;28;20088;-27
2022/06/15 04:51:10;;;;;;;2.45;2.03;;;;;;;27.26;42.25;97094.63;5116430;28;20023;-27
2022/06/15 04:53:39;;;;;;;3.05;1.85;;;;;;;27.26;42.38;97091.84;5116595;28;20020;-27
2022/06/15 04:56:05;;;;;;;3.20;2.20;;;;;;;27.27;42.48;97085.00;5116388;28;20023;-28
2022/06/15 04:58:31;;;;;;;3.80;2.13;;;;;;;27.27;42.05;97087.03;5116469;28;20072;-27
2022/06/15 05:00:57;;;;;;;4.53;2.20;;;;;;;27.25;42.45;97087.56;5116160;28;20440;-28
2022/06/15 05:03:22;;;;;;;6.05;1.95;;;;;;;27.25;42.31;97086.81;5115268;28;20111;-27
2022/06/15 05:05:48;;;;;;;5.70;2.45;;;;;;;27.28;42.05;97086.50;5116113;28;20031;-28
2022/06/15 05:08:13;;;;;;;3.13;1.90;;;;;;;27.26;42.53;97086.28;5116405;28;20015;-27
2022/06/15 05:10:38;;;;;;;4.93;2.15;;;;;;;27.21;42.38;97095.44;5116448;28;20383;-28
2022/06/15 05:13:04;;;;;;;3.00;2.15;;;;;;;27.24;42.39;97099.97;5116033;28;20079;-27
2022/06/15 05:15:30;;;;;;;1.60;1.48;;;;;;;27.23;43.00;97092.88;5115969;28;20027;-27
2022/06/15 05:18:02;;;;;;;3.33;2.15;;;;;;;27.21;42.32;97087.09;5116128;28;20019;-28
2022/06/15 05:21:10;;;;;;;4.07;1.75;;;;;;;27.26;42.75;97091.84;5116156;28;20097;-28
2022/06/15 05:23:37;;;;;;;2.50;1.90;;;;;;;27.25;42.27;97087.56;5115169;28;20094;-28
2022/06/15 05:26:45;;;;;;;2.05;1.55;;;;;;;27.23;42.59;97083.78;5123446;27;20443;-29
2022/06/15 05:29:11;;;;;;;3.90;1.75;;;;;;;27.16;42.80;97091.44;5113755;28;20468;-27
2022/06/15 05:31:36;;;;;;;4.95;2.05;;;;;;;27.21;42.39;97091.91;5123128;27;20031;-28
2022/06/15 05:34:01;;;;;;;4.18;1.85;;;;;;;27.24;42.45;97085.28;5134007;27;20037;-28
2022/06/15 05:36:31;;;;;;;5.35;2.20;;;;;;;27.18;43.02;97088.16;5133930;27;20099;-28
2022/06/15 05:38:57;;;;;;;6.72;1.95;;;;;;;27.24;42.71;97091.63;5134199;27;20030;-27
2022/06/15 05:41:23;;;;;;;5.65;2.40;;;;;;;27.24;42.77;97102.00;5134005;27;20022;-27
2022/06/15 05:46:18;;;;;;;7.93;2.67;;;;;;;27.20;42.71;97093.94;5113308;28;20422;-27
2022/06/15 05:48:43;;;;;;;8.02;2.15;;;;;;;27.17;42.59;97100.56;5113232;28;20099;-28
2022/06/15 05:51:09;;;;;;;6.90;2.78;;;;;;;27.16;43.04;97101.84;5113440;28;20113;-28
2022/06/15 05:53:35;;;;;;;5.47;2.00;;;;;;;27.19;42.78;97098.00;5113339;28;20460;-28
2022/06/15 05:56:00;;;;;;;4.63;2.10;;;;;;;27.17;42.70;97104.09;5113425;28;20064;-28
2022/06/15 05:58:25;;;;;;;5.70;2.20;;;;;;;27.10;42.56;97106.69;5113344;28;20072;-28
2022/06/15 06:00:51;;;;;;;5.35;2.15;;;;;;;27.14;42.62;97099.56;5112795;28;20027;-27
2022/06/15 06:03:16;;;;;;;4.28;2.33;;;;;;;27.23;42.43;97103.28;5093602;28;20027;-27
2022/06/15 06:05:42;;;;;;;3.42;2.00;;;;;;;27.19;42.60;97106.38;5112904;28;20035;-27
2022/06/15 06:08:08;;;;;;;3.15;2.00;;;;;;;27.17;42.70;97112.44;5112919;28;20034;-27
2022/06/15 06:10:34;;;;;;;4.05;2.15;;;;;;;27.22;42.50;97110.88;5113058;28;20031;-27
2022/06/15 06:13:00;;;;;;;7.03;2.20;;;;;;;27.13;42.27;97108.44;5112499;28;20047;-27
2022/06/15 06:15:26;;;;;;;5.00;2.17;;;;;;;27.18;41.97;97116.00;5112837;28;20380;-28
2022/06/15 06:17:51;;;;;;;4.28;2.20;;;;;;;27.17;42.43;97109.66;5113062;28;20124;-27
2022/06/15 06:20:17;;;;;;;4.10;2.00;;;;;;;27.17;42.49;97120.06;5122072;27;20026;-28
2022/06/15 06:22:42;;;;;;;5.47;2.13;;;;;;;27.18;42.40;97121.56;5133180;27;20496;-27
2022/06/15 06:25:08;;;;;;;2.47;1.88;;;;;;;27.20;41.88;97116.19;5133278;27;20031;-28
2022/06/15 06:27:35;;;;;;;3.28;2.13;;;;;;;27.20;42.13;97121.03;5132503;27;20079;-29
2022/06/15 06:30:01;;;;;;;3.67;1.70;;;;;;;27.17;42.36;97117.25;5132902;27;20019;-27
2022/06/15 06:32:26;;;;;;;4.63;2.10;;;;;;;27.15;41.97;97125.38;5132915;27;20046;-27
2022/06/15 06:34:55;;;;;;;3.67;1.83;;;;;;;27.27;41.70;97128.81;5132980;27;20115;-27
2022/06/15 06:37:21;;;;;;;2.95;2.17;;;;;;;27.08;42.28;97128.72;5132639;27;20027;-28
2022/06/15 06:39:53;;;;;;;4.15;1.92;;;;;;;27.13;41.65;97130.72;5121852;27;20027;-27
2022/06/15 06:42:19;;;;;;;3.20;2.22;;;;;;;27.19;41.96;97137.00;5112429;28;20064;-27
2022/06/15 06:44:44;;;;;;;3.80;2.00;;;;;;;27.21;41.63;97136.44;5112277;28;20032;-27
2022/06/15 06:47:10;;;;;;;2.83;2.00;;;;;;;27.10;41.87;97140.09;5112442;28;20506;-27
2022/06/15 06:49:36;;;;;;;2.72;1.70;;;;;;;27.16;41.75;97135.25;5111920;28;20026;-28
2022/06/15 06:52:01;;;;;;;2.67;2.05;;;;;;;27.13;42.16;97144.63;5112297;28;20027;-27
2022/06/15 06:54:27;;;;;;;2.08;1.85;;;;;;;27.15;41.88;97144.88;5112249;28;20023;-27
2022/06/15 06:56:53;;;;;;;4.85;2.08;;;;;;;27.02;42.71;97145.50;5112217;28;20771;-28
2022/06/15 06:59:19;;;;;;;2.45;2.05;;;;;;;27.16;42.07;97147.13;5112009;28;20115;-27
2022/06/15 07:01:46;;;;;;;2.90;2.08;;;;;;;27.09;42.02;97146.94;5111868;28;20111;-27
2022/06/15 07:04:14;;;;;;;2.53;1.90;;;;;;;27.18;41.69;97143.84;5110483;28;20053;-27
2022/06/15 07:06:40;;;;;;;4.45;2.05;;;;;;;27.16;42.04;97143.59;5112065;28;20024;-27
2022/06/15 07:09:06;;;;;;;2.95;2.00;;;;;;;27.17;41.69;97147.91;5112009;28;20424;-28
2022/06/15 07:11:32;;;;;;;3.90;2.00;;;;;;;27.13;42.04;97147.41;5112188;28;20028;-27
2022/06/15 07:13:59;;;;;;;3.55;2.13;;;;;;;27.13;41.94;97141.84;5128367;27;20051;-27
2022/06/15 07:16:24;;;;;;;3.20;2.10;;;;;;;27.25;41.39;97142.50;5134366;27;20052;-28
2022/06/15 07:18:50;;;;;;;2.80;2.20;;;;;;;27.02;42.15;97147.53;5134245;27;20023;-27
2022/06/15 07:21:19;;;;;;;5.43;2.30;;;;;;;27.06;42.34;97134.09;5134828;27;20452;-27
2022/06/15 07:23:49;;;;;;;2.47;1.90;;;;;;;27.14;41.50;97140.56;5134291;27;20023;-28
2022/06/15 07:26:25;;;;;;;3.85;1.90;;;;;;;27.10;42.00;97132.50;5134474;27;20031;-28
2022/06/15 07:28:51;;;;;;;1.95;1.77;;;;;;;27.11;41.80;97133.25;5141002;27;20038;-27
2022/06/15 07:31:29;;;;;;;4.72;1.98;;;;;;;26.94;42.83;97127.09;5141273;27;20019;-28
2022/06/15 07:33:57;;;;;;;3.00;2.17;;;;;;;27.08;41.95;97129.47;5122731;27;20122;-27
2022/06/15 07:36:23;;;;;;;2.53;2.10;;;;;;;27.18;41.63;97129.91;5141290;27;20194;-27
2022/06/15 07:38:53;;;;;;;2.75;2.10;;;;;;;27.20;41.28;97121.78;5141148;27;20669;-28
2022/06/15 07:41:19;;;;;;;3.70;2.00;;;;;;;27.04;41.77;97128.28;5140906;27;20023;-28
2022/06/15 07:43:45;;;;;;;2.28;1.95;;;;;;;27.20;41.65;97126.63;5140998;27;20046;-27
2022/06/15 07:46:11;;;;;;;3.10;2.00;;;;;;;27.18;41.24;97121.56;5141034;27;20023;-27
2022/06/15 07:51:43;;;;;;;3.45;2.35;;;;;;;27.08;41.38;97121.13;5141225;27;20152;-28
2022/06/15 07:54:11;;;;;;;3.13;1.80;;;;;;;27.17;41.00;97120.81;5141055;27;20026;-28
2022/06/15 07:56:38;;;;;;;6.07;2.22;;;;;;;27.03;41.26;97121.94;5140874;27;20030;-29
2022/06/15 07:59:04;;;;;;;3.22;1.95;;;;;;;27.11;41.41;97108.19;5140585;27;20168;-27
2022/06/15 08:01:31;;;;;;;3.63;2.00;;;;;;;27.20;41.06;97119.00;5140942;27;20106;-27
2022/06/15 08:03:56;;;;;;;2.08;1.90;;;;;;;27.21;41.22;97119.75;5140803;27;20180;-27
2022/06/15 08:06:23;;;;;;;3.53;2.10;;;;;;;27.21;40.97;97114.94;5140596;27;20145;-27
2022/06/15 08:08:49;;;;;;;2.30;2.00;;;;;;;27.24;40.69;97111.09;5140852;27;20089;-27
2022/06/15 08:11:15;;;;;;;3.45;2.10;;;;;;;27.16;41.18;97112.97;5122456;27;20020;-28
2022/06/15 08:13:41;;;;;;;3.30;2.13;;;;;;;27.00;40.63;97106.28;5140334;27;20039;-28
2022/06/15 08:16:08;;;;;;;3.38;2.20;;;;;;;27.09;41.00;97117.06;5140882;27;20436;-28
2022/06/15 08:18:39;;;;;;;5.60;2.35;;;;;;;27.06;41.02;97117.38;5139552;27;20475;-28
2022/06/15 08:21:11;;;;;;;3.08;2.00;;;;;;;27.12;40.73;97123.63;5140147;27;20034;-27
2022/06/15 08:23:41;;;;;;;4.68;2.35;;;;;;;26.41;42.63;97123.69;5140502;27;20034;-28
2022/06/15 08:26:12;;;;;;;4.10;2.28;;;;;;;26.68;41.57;97119.19;5140670;27;20058;-27
2022/06/15 08:28:41;;;;;;;4.50;2.38;;;;;;;26.92;40.77;97126.84;5121895;27;20159;-27
2022/06/15 08:31:07;;;;;;;4.50;2.28;;;;;;;27.02;40.74;97125.25;5140576;27;20023;-27
2022/06/15 08:33:33;;;;;;;4.72;2.30;;;;;;;27.10;40.77;97128.97;5140816;27;20106;-27
2022/06/15 08:35:59;;;;;;;3.65;2.13;;;;;;;27.11;40.91;97127.69;5140567;27;20055;-27
2022/06/15 08:38:26;;;;;;;5.85;2.30;;;;;;;27.09;40.53;97135.81;5139192;27;20438;-28
2022/06/15 08:41:02;;;;;;;6.18;1.95;;;;;;;27.08;40.44;97131.50;5137129;27;20049;-27
2022/06/15 08:43:30;;;;;;;2.30;2.10;;;;;;;27.11;40.65;97133.25;5137155;27;20027;-27
2022/06/15 08:46:06;;;;;;;4.20;2.40;;;;;;;27.10;40.13;97126.19;5137324;27;20046;-27
2022/06/15 08:48:41;;;;;;;5.35;2.70;;;;;;;27.04;40.79;97131.06;5137158;27;20015;-27
2022/06/15 08:51:27;;;;;;;5.68;2.85;;;;;;;27.10;40.09;97137.31;5137088;27;20498;-29
2022/06/15 08:54:06;;;;;;;4.43;2.42;;;;;;;26.96;41.08;97139.22;5137087;27;20360;-27
2022/06/15 08:56:39;;;;;;;5.72;2.03;;;;;;;27.09;40.31;97135.81;5137457;27;20047;-26
2022/06/15 08:59:33;;;;;;;4.07;2.20;;;;;;;27.06;40.67;97140.41;5136851;27;20160;-27
2022/06/15 09:01:59;;;;;;;4.63;2.28;;;;;;;27.03;40.65;97141.44;5125885;27;20050;-27
2022/06/15 09:04:37;;;;;;;5.97;2.33;;;;;;;26.99;40.82;97137.41;5136984;27;20058;-27
2022/06/15 09:07:09;;;;;;;2.42;2.20;;;;;;;27.05;40.06;97140.91;5137025;27;20144;-27
2022/06/15 09:10:07;;;;;;;3.22;2.10;;;;;;;27.01;40.11;97141.19;5136982;27;20019;-27
2022/06/15 09:12:52;;;;;;;2.92;2.25;;;;;;;27.03;40.70;97137.91;5090466;27;20107;-28
2022/06/15 09:15:33;;;;;;;4.78;2.55;;;;;;;27.02;40.72;97144.75;5116291;27;20019;-28
2022/06/15 09:18:10;;;;;;;3.97;2.40;;;;;;;27.04;40.12;97140.16;5118227;27;20479;-28
2022/06/15 09:20:42;;;;;;;4.03;2.30;;;;;;;27.05;40.24;97130.53;5133972;27;20035;-29
2022/06/15 09:23:16;;;;;;;3.00;2.30;;;;;;;26.96;40.60;97138.44;5136763;27;20471;-27
2022/06/15 09:25:47;;;;;;;5.35;2.15;;;;;;;26.96;40.04;97138.44;5136529;27;20482;-27
2022/06/15 09:28:20;;;;;;;5.00;2.50;;;;;;;26.98;39.94;97139.44;5136531;27;20030;-27
2022/06/15 09:30:47;;;;;;;3.35;2.20;;;;;;;27.03;39.91;97146.25;5136488;27;20022;-27
2022/06/15 09:33:28;;;;;;;4.18;2.35;;;;;;;26.99;40.09;97138.16;5136321;27;20468;-26
2022/06/15 09:36:02;;;;;;;3.90;2.40;;;;;;;27.02;40.43;97139.91;5136180;27;20023;-29
2022/06/15 09:38:32;;;;;;;3.47;2.10;;;;;;;27.02;40.17;97137.13;5118075;27;20383;-27
2022/06/15 09:41:15;;;;;;;3.33;2.40;;;;;;;27.08;40.04;97142.63;5136321;27;20031;-27
2022/06/15 09:44:02;;;;;;;3.97;2.45;;;;;;;26.99;40.33;97137.41;5136115;27;20039;-28
2022/06/15 09:46:41;;;;;;;5.30;2.35;;;;;;;26.93;39.92;97136.72;5136525;27;20023;-27
2022/06/15 09:49:14;;;;;;;3.90;2.38;;;;;;;27.05;39.77;97136.09;5135902;27;20332;-27
2022/06/15 09:52:12;;;;;;;6.75;2.42;;;;;;;27.01;39.88;97140.44;5135947;27;20031;-27
2022/06/15 09:54:46;;;;;;;2.83;2.08;;;;;;;27.04;40.20;97137.38;5135798;27;20477;-27
2022/06/15 09:57:12;;;;;;;2.92;2.15;;;;;;;27.03;39.90;97146.25;5135717;27;20022;-27
2022/06/15 09:59:40;;;;;;;2.55;2.20;;;;;;;27.01;40.35;97148.78;5135763;27;20030;-27
2022/06/15 10:02:37;;;;;;;3.28;2.33;;;;;;;26.93;40.20;97145.06;5135890;27;20019;-28
2022/06/15 10:05:07;;;;;;;5.13;2.28;;;;;;;27.04;40.10;97139.41;5130736;27;20039;-27
2022/06/15 10:07:43;;;;;;;4.85;2.53;;;;;;;27.03;39.67;97132.31;5135458;27;20026;-28
2022/06/15 10:10:24;;;;;;;4.95;2.10;;;;;;;26.98;40.35;97133.88;5135709;27;20016;-27
2022/06/15 10:13:02;;;;;;;4.95;2.42;;;;;;;27.01;39.86;97127.28;5135301;27;20082;-26
2022/06/15 10:15:40;;;;;;;3.17;2.03;;;;;;;27.05;39.55;97129.78;5135627;27;20019;-27
2022/06/15 10:18:43;;;;;;;3.55;2.20;;;;;;;27.03;39.78;97121.19;5135425;27;20528;-26
2022/06/15 10:21:14;;;;;;;3.97;2.33;;;;;;;27.04;39.35;97126.25;5135385;27;20041;-28
2022/06/15 10:23:46;;;;;;;2.80;2.50;;;;;;;27.00;39.86;97125.00;5135433;27;20467;-27
2022/06/15 10:26:23;;;;;;;6.50;2.95;;;;;;;27.02;39.49;97126.00;5135535;27;20359;-27
2022/06/15 10:28:49;;;;;;;4.18;2.50;;;;;;;27.01;39.57;97132.84;5135299;27;20031;-27
2022/06/15 10:31:22;;;;;;;3.80;2.50;;;;;;;26.99;39.45;97129.81;5135011;27;20026;-27
2022/06/15 10:33:50;;;;;;;6.13;2.50;;;;;;;27.07;39.74;97132.81;5135156;27;20031;-27
2022/06/15 10:36:20;;;;;;;6.90;2.67;;;;;;;27.07;39.54;97127.25;5135048;27;20023;-27
2022/06/15 10:39:07;;;;;;;4.82;2.17;;;;;;;27.12;39.27;97123.63;5134758;27;20472;-27
2022/06/15 10:41:46;;;;;;;4.25;2.17;;;;;;;27.07;39.22;97139.13;5120474;27;20039;-27
2022/06/15 10:44:23;;;;;;;2.72;1.88;;;;;;;27.04;39.63;97131.81;5135059;27;20105;-27
2022/06/15 10:46:57;;;;;;;4.93;2.25;;;;;;;26.98;39.39;97130.34;5135008;27;20454;-27
2022/06/15 10:49:24;;;;;;;2.78;2.10;;;;;;;27.10;39.26;97126.94;5134861;27;20509;-28
2022/06/15 10:51:50;;;;;;;5.55;2.67;;;;;;;27.11;39.05;97134.00;5134833;27;20113;-27
2022/06/15 10:54:21;;;;;;;3.88;2.33;;;;;;;27.09;39.54;97133.00;5134815;27;20034;-27
2022/06/15 11:02:42;;;;;;;4.22;2.22;;;;;;;27.09;39.10;97130.22;5134119;27;20535;-27
2022/06/15 11:05:19;;;;;;;4.35;2.25;;;;;;;27.09;39.37;97124.66;5134645;27;20023;-27
2022/06/15 11:07:55;;;;;;;2.58;2.17;;;;;;;27.11;39.12;97133.25;5116323;27;20057;-28
2022/06/15 11:10:31;;;;;;;5.07;2.42;;;;;;;27.12;39.76;97129.19;5134623;27;20030;-26
2022/06/15 11:13:20;;;;;;;2.58;2.13;;;;;;;27.23;39.45;97128.34;5134270;27;20407;-28
2022/06/15 11:18:44;;;;;;;3.90;2.65;;;;;;;27.07;40.09;97128.00;5134564;27;20051;-27
2022/06/15 11:21:15;;;;;;;4.30;2.20;;;;;;;27.11;39.69;97127.69;5134490;27;20019;-27
2022/06/15 11:24:11;;;;;;;5.35;2.28;;;;;;;27.15;40.03;97128.91;5134505;27;20055;-29
2022/06/15 11:26:59;;;;;;;4.72;2.45;;;;;;;27.13;40.09;97128.69;5134287;28;20020;-27
2022/06/15 11:29:27;;;;;;;5.80;2.30;;;;;;;27.13;40.04;97130.72;5134608;28;20068;-28
2022/06/15 11:31:56;;;;;;;3.63;2.35;;;;;;;27.15;40.28;97128.16;5134353;28;20102;-27
2022/06/15 11:34:31;;;;;;;5.40;2.30;;;;;;;27.17;40.14;97136.75;5134250;28;20054;-28
2022/06/15 11:37:21;;;;;;;3.75;2.38;;;;;;;27.14;40.06;97126.66;5134393;28;20448;-27
2022/06/15 11:39:55;;;;;;;5.53;2.03;;;;;;;27.12;40.44;97141.09;5134183;28;20544;-27
2022/06/15 11:42:21;;;;;;;3.38;2.10;;;;;;;27.17;40.17;97128.41;5134231;28;20027;-27
2022/06/15 11:44:47;;;;;;;3.75;2.20;;;;;;;27.16;40.47;97124.09;5134200;28;20030;-27
2022/06/15 11:47:21;;;;;;;6.25;2.05;;;;;;;27.20;39.83;97124.56;5134289;28;20023;-27
2022/06/15 11:50:11;;;;;;;2.35;1.98;;;;;;;27.13;40.45;97125.91;5115670;28;20447;-28
2022/06/15 11:52:59;;;;;;;4.30;2.08;;;;;;;27.15;40.49;97122.59;5121560;28;20349;-27
2022/06/15 11:55:57;;;;;;;2.95;2.10;;;;;;;27.17;40.17;97106.88;5134192;28;20019;-28
2022/06/15 11:58:45;;;;;;;2.38;2.17;;;;;;;27.25;40.14;97115.41;5134173;28;20468;-27
2022/06/15 12:01:23;;;;;;;5.03;2.13;;;;;;;27.21;40.21;97112.16;5133661;28;20043;-27
2022/06/15 12:03:51;;;;;;;2.20;2.00;;;;;;;27.09;40.29;97119.84;5133959;28;20077;-29
2022/06/15 12:06:28;;;;;;;3.20;2.30;;;;;;;27.07;39.94;97108.50;5133923;28;20023;-28